createdAt,value
2017-10-27T00:00:46.233Z,12.98
2017-10-27T00:01:46.246Z,12.95
2017-10-27T00:02:46.260Z,12.95
2017-10-27T00:03:25.199Z,12.94
2017-10-27T00:04:46.216Z,12.98
2017-10-27T00:05:46.241Z,12.94
2017-10-27T00:06:46.206Z,12.98
2017-10-27T00:07:25.183Z,12.93
2017-10-27T00:08:46.231Z,12.95
2017-10-27T00:09:46.212Z,12.95
2017-10-27T00:10:46.221Z,12.97
2017-10-27T00:11:25.165Z,12.90
2017-10-27T00:12:46.248Z,12.82
2017-10-27T00:13:46.228Z,12.94
2017-10-27T00:14:46.201Z,12.85
2017-10-27T00:15:25.142Z,12.87
2017-10-27T00:16:46.160Z,12.87
2017-10-27T00:17:46.140Z,12.83
2017-10-27T00:18:46.178Z,12.86
2017-10-27T00:19:25.131Z,12.91
2017-10-27T00:20:46.136Z,12.85
2017-10-27T00:21:46.124Z,12.87
2017-10-27T00:22:46.134Z,12.86
2017-10-27T00:23:25.111Z,12.83
2017-10-27T00:24:46.157Z,12.97
2017-10-27T00:25:46.120Z,12.94
2017-10-27T00:26:46.150Z,12.93
2017-10-27T00:27:25.083Z,12.90
2017-10-27T00:28:46.096Z,12.93
2017-10-27T00:29:46.092Z,13.00
2017-10-27T00:30:47.563Z,12.97
2017-10-27T00:31:25.080Z,12.97
2017-10-27T00:32:46.080Z,12.98
2017-10-27T00:33:46.078Z,13.05
2017-10-27T00:34:46.068Z,13.01
2017-10-27T00:35:25.060Z,13.04
2017-10-27T00:36:46.054Z,13.11
2017-10-27T00:37:46.060Z,13.03
2017-10-27T00:38:46.045Z,12.98
2017-10-27T00:39:25.037Z,12.95
2017-10-27T00:40:46.040Z,12.97
2017-10-27T00:41:46.049Z,12.93
2017-10-27T00:42:46.035Z,12.98
2017-10-27T00:43:25.023Z,12.91
2017-10-27T00:44:46.025Z,13.00
2017-10-27T00:45:46.031Z,12.93
2017-10-27T00:46:46.024Z,12.93
2017-10-27T00:47:25.009Z,12.93
2017-10-27T00:48:46.009Z,12.95
2017-10-27T00:49:46.006Z,12.98
2017-10-27T00:50:46.025Z,12.97
2017-10-27T00:51:24.987Z,12.94
2017-10-27T00:52:45.996Z,12.97
2017-10-27T00:53:45.981Z,12.93
2017-10-27T00:54:45.978Z,12.95
2017-10-27T00:55:24.976Z,12.98
2017-10-27T00:56:45.975Z,12.94
2017-10-27T00:57:45.972Z,12.97
2017-10-27T00:58:45.965Z,12.94
2017-10-27T00:59:24.953Z,12.94
2017-10-27T01:00:45.959Z,12.97
2017-10-27T01:01:45.969Z,13.01
2017-10-27T01:02:45.959Z,12.98
2017-10-27T01:03:24.940Z,12.98
2017-10-27T01:04:45.945Z,13.03
2017-10-27T01:05:45.938Z,12.98
2017-10-27T01:06:45.938Z,12.95
2017-10-27T01:07:24.925Z,12.97
2017-10-27T01:08:45.956Z,13.01
2017-10-27T01:09:45.928Z,13.01
2017-10-27T01:10:45.916Z,12.95
2017-10-27T01:11:24.902Z,12.98
2017-10-27T01:12:45.919Z,12.95
2017-10-27T01:13:45.902Z,12.97
2017-10-27T01:14:45.899Z,12.91
2017-10-27T01:15:24.887Z,12.97
2017-10-27T01:16:45.897Z,12.93
2017-10-27T01:17:45.880Z,12.87
2017-10-27T01:18:45.880Z,12.91
2017-10-27T01:19:24.863Z,12.95
2017-10-27T01:20:45.873Z,12.90
2017-10-27T01:21:45.874Z,12.97
2017-10-27T01:22:46.269Z,12.97
2017-10-27T01:23:24.849Z,12.93
2017-10-27T01:24:45.859Z,12.93
2017-10-27T01:25:45.851Z,12.91
2017-10-27T01:26:45.855Z,12.91
2017-10-27T01:27:24.842Z,12.91
2017-10-27T01:28:45.839Z,12.93
2017-10-27T01:29:45.845Z,12.94
2017-10-27T01:30:45.830Z,12.97
2017-10-27T01:31:24.822Z,12.95
2017-10-27T01:32:45.823Z,12.91
2017-10-27T01:33:45.820Z,12.95
2017-10-27T01:34:45.815Z,12.97
2017-10-27T01:35:24.794Z,12.94
2017-10-27T01:36:45.808Z,12.94
2017-10-27T01:37:45.800Z,13.04
2017-10-27T01:38:45.803Z,13.00
2017-10-27T01:39:24.792Z,13.03
2017-10-27T01:40:45.798Z,13.04
2017-10-27T01:41:45.785Z,13.03
2017-10-27T01:42:45.782Z,13.00
2017-10-27T01:43:24.808Z,13.00
2017-10-27T01:44:45.775Z,13.08
2017-10-27T01:45:45.767Z,13.04
2017-10-27T01:46:45.775Z,13.09
2017-10-27T01:47:24.755Z,13.15
2017-10-27T01:48:45.763Z,13.18
2017-10-27T01:49:45.765Z,13.13
2017-10-27T01:50:45.750Z,13.13
2017-10-27T01:51:24.738Z,13.09
2017-10-27T01:52:45.737Z,13.11
2017-10-27T01:53:45.733Z,13.13
2017-10-27T01:54:45.729Z,13.04
2017-10-27T01:55:24.713Z,13.11
2017-10-27T01:56:45.719Z,13.12
2017-10-27T01:57:45.714Z,13.12
2017-10-27T01:58:45.715Z,13.09
2017-10-27T01:59:24.703Z,13.15
2017-10-27T02:00:45.705Z,13.13
2017-10-27T02:01:45.697Z,13.13
2017-10-27T02:02:45.706Z,13.11
2017-10-27T02:03:24.680Z,13.15
2017-10-27T02:04:45.686Z,13.16
2017-10-27T02:05:45.681Z,13.13
2017-10-27T02:06:45.679Z,13.12
2017-10-27T02:07:24.666Z,13.11
2017-10-27T02:08:45.669Z,13.11
2017-10-27T02:09:45.661Z,13.15
2017-10-27T02:10:45.665Z,13.09
2017-10-27T02:11:24.648Z,13.23
2017-10-27T02:12:45.656Z,13.12
2017-10-27T02:13:45.655Z,13.13
2017-10-27T02:14:45.643Z,13.15
2017-10-27T02:15:24.634Z,13.25
2017-10-27T02:16:45.630Z,13.22
2017-10-27T02:17:45.629Z,13.23
2017-10-27T02:18:45.624Z,13.31
2017-10-27T02:19:24.614Z,13.33
2017-10-27T02:20:45.625Z,13.28
2017-10-27T02:21:45.612Z,13.23
2017-10-27T02:22:45.612Z,13.31
2017-10-27T02:23:24.599Z,13.28
2017-10-27T02:24:45.600Z,13.30
2017-10-27T02:25:45.601Z,13.37
2017-10-27T02:26:45.595Z,13.33
2017-10-27T02:27:24.581Z,13.42
2017-10-27T02:28:45.586Z,13.41
2017-10-27T02:29:45.578Z,13.46
2017-10-27T02:30:45.576Z,13.49
2017-10-27T02:31:24.566Z,13.57
2017-10-27T02:32:45.600Z,13.52
2017-10-27T02:33:45.568Z,13.46
2017-10-27T02:34:45.558Z,13.59
2017-10-27T02:35:24.550Z,13.54
2017-10-27T02:36:45.548Z,13.52
2017-10-27T02:37:45.550Z,13.54
2017-10-27T02:38:45.541Z,13.53
2017-10-27T02:39:24.534Z,13.59
2017-10-27T02:40:45.530Z,13.59
2017-10-27T02:41:45.529Z,13.57
2017-10-27T02:42:45.529Z,13.56
2017-10-27T02:43:24.524Z,13.60
2017-10-27T02:44:45.518Z,13.62
2017-10-27T02:45:45.550Z,13.57
2017-10-27T02:46:45.510Z,13.59
2017-10-27T02:47:24.510Z,13.47
2017-10-27T02:48:45.501Z,13.56
2017-10-27T02:49:45.499Z,13.60
2017-10-27T02:50:45.493Z,13.56
2017-10-27T02:51:24.484Z,13.63
2017-10-27T02:52:45.489Z,13.63
2017-10-27T02:53:45.519Z,13.68
2017-10-27T02:54:45.480Z,13.67
2017-10-27T02:55:24.464Z,13.65
2017-10-27T02:56:45.478Z,13.70
2017-10-27T02:57:45.471Z,13.60
2017-10-27T02:58:45.470Z,13.63
2017-10-27T02:59:24.449Z,13.71
2017-10-27T03:00:45.452Z,13.75
2017-10-27T03:01:45.446Z,13.83
2017-10-27T03:02:45.444Z,13.79
2017-10-27T03:03:24.437Z,13.89
2017-10-27T03:04:45.440Z,13.90
2017-10-27T03:05:45.528Z,13.90
2017-10-27T03:06:45.426Z,13.86
2017-10-27T03:07:24.419Z,13.81
2017-10-27T03:08:45.420Z,13.72
2017-10-27T03:09:45.417Z,13.71
2017-10-27T03:10:45.407Z,13.70
2017-10-27T03:11:24.399Z,13.65
2017-10-27T03:12:45.405Z,13.67
2017-10-27T03:13:45.394Z,13.67
2017-10-27T03:14:45.400Z,13.68
2017-10-27T03:15:24.391Z,13.74
2017-10-27T03:16:45.391Z,13.57
2017-10-27T03:17:45.375Z,13.68
2017-10-27T03:18:45.374Z,13.59
2017-10-27T03:19:24.367Z,13.52
2017-10-27T03:20:45.380Z,13.56
2017-10-27T03:21:45.406Z,13.49
2017-10-27T03:22:45.356Z,13.35
2017-10-27T03:23:24.348Z,13.28
2017-10-27T03:24:45.355Z,13.35
2017-10-27T03:25:45.348Z,13.18
2017-10-27T03:26:45.344Z,13.12
2017-10-27T03:27:24.332Z,13.08
2017-10-27T03:28:45.336Z,13.00
2017-10-27T03:29:45.324Z,12.95
2017-10-27T03:30:45.325Z,12.90
2017-10-27T03:31:24.310Z,12.87
2017-10-27T03:32:45.320Z,12.85
2017-10-27T03:33:45.313Z,12.83
2017-10-27T03:34:45.303Z,12.82
2017-10-27T03:35:25.584Z,12.87
2017-10-27T03:36:45.298Z,12.86
2017-10-27T03:37:45.293Z,12.86
2017-10-27T03:38:45.290Z,12.82
2017-10-27T03:39:24.274Z,12.79
2017-10-27T03:40:45.280Z,12.78
2017-10-27T03:41:45.288Z,12.75
2017-10-27T03:42:45.274Z,12.78
2017-10-27T03:43:24.260Z,12.73
2017-10-27T03:44:45.262Z,12.70
2017-10-27T03:45:45.275Z,12.80
2017-10-27T03:46:45.254Z,12.64
2017-10-27T03:47:24.253Z,12.64
2017-10-27T03:48:45.251Z,12.75
2017-10-27T03:49:45.242Z,12.64
2017-10-27T03:50:45.231Z,12.67
2017-10-27T03:51:24.222Z,12.65
2017-10-27T03:52:45.228Z,12.65
2017-10-27T03:53:45.219Z,12.58
2017-10-27T03:54:45.255Z,12.57
2017-10-27T03:55:24.206Z,12.55
2017-10-27T03:56:45.221Z,12.55
2017-10-27T03:57:45.206Z,12.53
2017-10-27T03:58:45.199Z,12.50
2017-10-27T03:59:24.193Z,12.49
2017-10-27T04:00:45.193Z,12.45
2017-10-27T04:01:45.183Z,12.43
2017-10-27T04:02:45.187Z,12.45
2017-10-27T04:03:24.176Z,12.31
2017-10-27T04:04:45.175Z,12.40
2017-10-27T04:05:45.165Z,12.36
2017-10-27T04:06:45.171Z,12.29
2017-10-27T04:07:24.151Z,12.39
2017-10-27T04:08:45.150Z,12.40
2017-10-27T04:09:45.155Z,12.28
2017-10-27T04:10:45.150Z,12.35
2017-10-27T04:11:24.139Z,12.28
2017-10-27T04:12:45.141Z,12.25
2017-10-27T04:13:45.134Z,12.29
2017-10-27T04:14:45.132Z,12.27
2017-10-27T04:15:24.119Z,12.18
2017-10-27T04:16:45.117Z,12.22
2017-10-27T04:17:45.116Z,12.24
2017-10-27T04:18:45.111Z,12.28
2017-10-27T04:19:24.103Z,12.29
2017-10-27T04:20:45.102Z,12.24
2017-10-27T04:21:45.101Z,12.35
2017-10-27T04:22:45.096Z,12.29
2017-10-27T04:23:24.081Z,12.32
2017-10-27T04:24:45.089Z,12.29
2017-10-27T04:25:45.078Z,12.22
2017-10-27T04:26:45.079Z,12.20
2017-10-27T04:27:24.065Z,12.28
2017-10-27T04:28:45.205Z,12.29
2017-10-27T04:29:45.058Z,12.25
2017-10-27T04:30:45.057Z,12.29
2017-10-27T04:31:24.047Z,12.29
2017-10-27T04:32:45.043Z,12.27
2017-10-27T04:33:45.047Z,12.25
2017-10-27T04:34:45.037Z,12.32
2017-10-27T04:35:24.049Z,12.24
2017-10-27T04:36:45.030Z,12.21
2017-10-27T04:37:45.026Z,12.29
2017-10-27T04:38:45.022Z,12.20
2017-10-27T04:39:24.007Z,12.21
2017-10-27T04:40:45.013Z,12.31
2017-10-27T04:41:45.004Z,12.24
2017-10-27T04:42:45.003Z,12.25
2017-10-27T04:43:23.994Z,12.20
2017-10-27T04:44:44.990Z,12.24
2017-10-27T04:45:44.992Z,12.24
2017-10-27T04:46:44.988Z,12.21
2017-10-27T04:47:23.975Z,12.27
2017-10-27T04:48:44.978Z,12.24
2017-10-27T04:49:44.972Z,12.25
2017-10-27T04:50:44.971Z,12.29
2017-10-27T04:51:23.961Z,12.24
2017-10-27T04:52:44.961Z,12.27
2017-10-27T04:53:44.949Z,12.21
2017-10-27T04:54:44.951Z,12.25
2017-10-27T04:55:23.970Z,12.25
2017-10-27T04:56:44.938Z,12.25
2017-10-27T04:57:44.933Z,12.31
2017-10-27T04:58:44.930Z,12.29
2017-10-27T04:59:23.920Z,12.35
2017-10-27T05:00:44.922Z,12.31
2017-10-27T05:01:44.923Z,12.32
2017-10-27T05:02:44.917Z,12.36
2017-10-27T05:03:23.908Z,12.35
2017-10-27T05:04:44.902Z,12.37
2017-10-27T05:05:44.900Z,12.40
2017-10-27T05:06:44.893Z,12.29
2017-10-27T05:07:23.880Z,12.40
2017-10-27T05:08:44.894Z,12.45
2017-10-27T05:09:44.877Z,12.37
2017-10-27T05:10:44.874Z,12.43
2017-10-27T05:11:23.861Z,12.39
2017-10-27T05:12:44.866Z,12.43
2017-10-27T05:13:44.865Z,12.43
2017-10-27T05:14:44.856Z,12.39
2017-10-27T05:15:23.852Z,12.43
2017-10-27T05:16:44.856Z,12.43
2017-10-27T05:17:44.844Z,12.40
2017-10-27T05:18:44.841Z,12.39
2017-10-27T05:19:23.830Z,12.45
2017-10-27T05:20:44.829Z,12.43
2017-10-27T05:21:44.821Z,12.40
2017-10-27T05:22:44.824Z,12.37
2017-10-27T05:23:23.813Z,12.37
2017-10-27T05:24:44.810Z,12.42
2017-10-27T05:25:44.811Z,12.40
2017-10-27T05:26:44.799Z,12.40
2017-10-27T05:27:23.796Z,12.42
2017-10-27T05:28:44.795Z,12.46
2017-10-27T05:29:44.795Z,12.47
2017-10-27T05:30:44.784Z,12.50
2017-10-27T05:31:23.775Z,12.47
2017-10-27T05:32:44.777Z,12.50
2017-10-27T05:33:44.769Z,12.47
2017-10-27T05:34:44.763Z,12.50
2017-10-27T05:35:23.752Z,12.39
2017-10-27T05:36:44.755Z,12.42
2017-10-27T05:37:44.748Z,12.35
2017-10-27T05:38:44.740Z,12.40
2017-10-27T05:39:23.731Z,12.36
2017-10-27T05:40:44.733Z,12.32
2017-10-27T05:41:44.734Z,12.32
2017-10-27T05:42:44.723Z,12.31
2017-10-27T05:43:23.714Z,12.29
2017-10-27T05:44:44.720Z,12.32
2017-10-27T05:45:44.715Z,12.27
2017-10-27T05:46:44.711Z,12.35
2017-10-27T05:47:23.697Z,12.25
2017-10-27T05:48:44.697Z,12.28
2017-10-27T05:49:44.687Z,12.22
2017-10-27T05:50:44.690Z,12.29
2017-10-27T05:51:23.678Z,12.24
2017-10-27T05:52:44.677Z,12.17
2017-10-27T05:53:44.675Z,12.24
2017-10-27T05:54:44.670Z,12.29
2017-10-27T05:55:23.660Z,12.24
2017-10-27T05:56:44.660Z,12.20
2017-10-27T05:57:44.656Z,12.36
2017-10-27T05:58:44.660Z,12.31
2017-10-27T05:59:23.646Z,12.45
2017-10-27T06:00:44.660Z,12.40
2017-10-27T06:01:44.673Z,12.53
2017-10-27T06:02:44.630Z,12.50
2017-10-27T06:03:23.619Z,12.58
2017-10-27T06:04:44.649Z,12.60
2017-10-27T06:05:44.622Z,12.49
2017-10-27T06:06:44.611Z,12.62
2017-10-27T06:07:23.612Z,12.64
2017-10-27T06:08:44.607Z,12.62
2017-10-27T06:09:44.602Z,12.64
2017-10-27T06:10:44.602Z,12.62
2017-10-27T06:11:23.585Z,12.64
2017-10-27T06:12:44.587Z,12.72
2017-10-27T06:13:44.580Z,12.65
2017-10-27T06:14:44.578Z,12.58
2017-10-27T06:15:23.565Z,12.67
2017-10-27T06:16:44.568Z,12.65
2017-10-27T06:17:45.148Z,12.70
2017-10-27T06:18:44.556Z,12.62
2017-10-27T06:19:23.540Z,12.67
2017-10-27T06:20:44.544Z,12.62
2017-10-27T06:21:44.544Z,12.55
2017-10-27T06:22:44.536Z,12.67
2017-10-27T06:23:23.528Z,12.62
2017-10-27T06:24:44.543Z,12.61
2017-10-27T06:25:44.529Z,12.55
2017-10-27T06:26:44.522Z,12.54
2017-10-27T06:27:23.524Z,12.62
2017-10-27T06:28:44.508Z,12.57
2017-10-27T06:29:44.501Z,12.54
2017-10-27T06:30:44.498Z,12.62
2017-10-27T06:31:23.495Z,12.64
2017-10-27T06:32:44.501Z,12.54
2017-10-27T06:33:44.487Z,12.55
2017-10-27T06:34:44.485Z,12.53
2017-10-27T06:35:23.475Z,12.55
2017-10-27T06:36:44.475Z,12.64
2017-10-27T06:37:44.468Z,12.67
2017-10-27T06:38:44.469Z,12.68
2017-10-27T06:39:23.450Z,12.65
2017-10-27T06:40:44.460Z,12.70
2017-10-27T06:41:44.508Z,12.67
2017-10-27T06:42:44.443Z,12.55
2017-10-27T06:43:23.431Z,12.57
2017-10-27T06:44:44.437Z,12.53
2017-10-27T06:45:44.426Z,12.53
2017-10-27T06:46:44.427Z,12.42
2017-10-27T06:47:23.434Z,12.36
2017-10-27T06:48:44.417Z,12.29
2017-10-27T06:49:44.416Z,12.32
2017-10-27T06:50:44.410Z,12.35
2017-10-27T06:51:23.398Z,12.24
2017-10-27T06:52:44.393Z,12.25
2017-10-27T06:53:44.398Z,12.32
2017-10-27T06:54:44.393Z,12.21
2017-10-27T06:55:23.381Z,12.27
2017-10-27T06:56:44.381Z,12.29
2017-10-27T06:57:44.368Z,12.31
2017-10-27T06:58:44.367Z,12.21
2017-10-27T06:59:23.361Z,12.35
2017-10-27T07:00:44.359Z,12.40
2017-10-27T07:01:44.359Z,12.50
2017-10-27T07:02:44.347Z,12.65
2017-10-27T07:03:23.336Z,12.64
2017-10-27T07:04:44.352Z,12.65
2017-10-27T07:05:44.333Z,12.65
2017-10-27T07:06:44.336Z,12.65
2017-10-27T07:07:23.317Z,12.62
2017-10-27T07:08:44.326Z,12.64
2017-10-27T07:09:44.326Z,12.65
2017-10-27T07:10:44.308Z,12.65
2017-10-27T07:11:23.300Z,12.70
2017-10-27T07:12:44.302Z,12.73
2017-10-27T07:13:44.302Z,12.72
2017-10-27T07:14:44.293Z,12.79
2017-10-27T07:15:23.311Z,12.78
2017-10-27T07:16:44.283Z,12.78
2017-10-27T07:17:44.281Z,12.79
2017-10-27T07:18:44.278Z,12.86
2017-10-27T07:19:23.282Z,12.90
2017-10-27T07:20:44.269Z,12.87
2017-10-27T07:21:44.259Z,12.78
2017-10-27T07:22:44.253Z,12.78
2017-10-27T07:23:23.279Z,12.87
2017-10-27T07:24:44.244Z,12.87
2017-10-27T07:25:44.239Z,12.91
2017-10-27T07:26:44.238Z,12.97
2017-10-27T07:27:23.226Z,13.04
2017-10-27T07:28:44.228Z,13.08
2017-10-27T07:29:44.223Z,13.11
2017-10-27T07:30:44.222Z,13.18
2017-10-27T07:31:23.257Z,13.18
2017-10-27T07:32:44.212Z,13.18
2017-10-27T07:33:44.208Z,13.22
2017-10-27T07:34:44.207Z,13.20
2017-10-27T07:35:23.208Z,13.30
2017-10-27T07:36:44.194Z,13.23
2017-10-27T07:37:44.191Z,13.37
2017-10-27T07:38:44.184Z,13.33
2017-10-27T07:39:23.192Z,13.35
2017-10-27T07:40:44.187Z,13.28
2017-10-27T07:41:44.170Z,13.41
2017-10-27T07:42:44.164Z,13.41
2017-10-27T07:43:23.207Z,13.56
2017-10-27T07:44:44.159Z,13.52
2017-10-27T07:45:44.157Z,13.49
2017-10-27T07:46:44.144Z,13.57
2017-10-27T07:47:23.141Z,13.50
2017-10-27T07:48:44.138Z,13.57
2017-10-27T07:49:44.133Z,13.56
2017-10-27T07:50:44.130Z,13.49
2017-10-27T07:51:23.121Z,13.47
2017-10-27T07:52:44.123Z,13.47
2017-10-27T07:53:44.119Z,13.47
2017-10-27T07:54:44.114Z,13.52
2017-10-27T07:55:23.162Z,13.54
2017-10-27T07:56:44.105Z,13.53
2017-10-27T07:57:44.098Z,13.56
2017-10-27T07:58:44.102Z,13.53
2017-10-27T07:59:23.091Z,13.47
2017-10-27T08:00:44.095Z,13.60
2017-10-27T08:01:44.081Z,13.71
2017-10-27T08:02:44.082Z,13.63
2017-10-27T08:03:23.067Z,13.65
2017-10-27T08:04:44.071Z,13.60
2017-10-27T08:05:44.066Z,13.60
2017-10-27T08:06:44.060Z,13.60
2017-10-27T08:07:23.076Z,13.60
2017-10-27T08:08:44.064Z,13.57
2017-10-27T08:09:44.050Z,13.57
2017-10-27T08:10:44.050Z,13.57
2017-10-27T08:11:23.048Z,13.49
2017-10-27T08:12:44.034Z,13.57
2017-10-27T08:13:44.037Z,13.56
2017-10-27T08:14:44.025Z,13.49
2017-10-27T08:15:23.085Z,13.50
2017-10-27T08:16:44.022Z,13.54
2017-10-27T08:17:44.012Z,13.62
2017-10-27T08:18:44.012Z,13.57
2017-10-27T08:19:23.290Z,13.50
2017-10-27T08:20:44.003Z,13.68
2017-10-27T08:21:43.999Z,13.63
2017-10-27T08:22:43.990Z,13.72
2017-10-27T08:23:23.012Z,13.59
2017-10-27T08:24:43.986Z,13.67
2017-10-27T08:25:43.982Z,13.70
2017-10-27T08:26:43.979Z,13.78
2017-10-27T08:27:23.014Z,13.77
2017-10-27T08:28:43.970Z,13.86
2017-10-27T08:29:43.961Z,13.90
2017-10-27T08:30:43.958Z,14.10
2017-10-27T08:31:23.655Z,14.22
2017-10-27T08:32:43.950Z,14.32
2017-10-27T08:33:43.947Z,14.30
2017-10-27T08:34:43.942Z,14.37
2017-10-27T08:35:22.979Z,14.36
2017-10-27T08:36:43.934Z,14.41
2017-10-27T08:37:43.934Z,14.41
2017-10-27T08:38:43.933Z,14.26
2017-10-27T08:39:22.926Z,14.17
2017-10-27T08:40:43.924Z,14.22
2017-10-27T08:41:43.917Z,14.23
2017-10-27T08:42:43.913Z,14.11
2017-10-27T08:43:22.903Z,14.10
2017-10-27T08:44:43.904Z,14.10
2017-10-27T08:45:43.897Z,14.10
2017-10-27T08:46:43.909Z,14.03
2017-10-27T08:47:22.885Z,13.99
2017-10-27T08:48:43.887Z,14.05
2017-10-27T08:49:43.884Z,14.04
2017-10-27T08:50:43.887Z,14.12
2017-10-27T08:51:22.867Z,14.30
2017-10-27T08:52:43.883Z,14.25
2017-10-27T08:53:43.874Z,14.32
2017-10-27T08:54:43.863Z,14.25
2017-10-27T08:55:22.860Z,14.17
2017-10-27T08:56:43.853Z,14.10
2017-10-27T08:57:43.852Z,14.08
2017-10-27T08:58:43.848Z,14.04
2017-10-27T08:59:24.229Z,13.90
2017-10-27T09:00:45.203Z,13.97
2017-10-27T09:01:43.832Z,13.86
2017-10-27T09:02:43.833Z,13.86
2017-10-27T09:03:22.823Z,13.83
2017-10-27T09:04:43.827Z,13.78
2017-10-27T09:05:43.819Z,13.85
2017-10-27T09:06:43.820Z,13.96
2017-10-27T09:07:22.803Z,13.96
2017-10-27T09:08:43.810Z,14.07
2017-10-27T09:09:43.802Z,14.04
2017-10-27T09:10:43.800Z,14.10
2017-10-27T09:11:22.790Z,14.18
2017-10-27T09:12:43.791Z,14.22
2017-10-27T09:13:43.790Z,14.32
2017-10-27T09:14:43.801Z,14.45
2017-10-27T09:15:22.772Z,14.41
2017-10-27T09:16:43.795Z,14.35
2017-10-27T09:17:43.773Z,14.40
2017-10-27T09:18:43.765Z,14.33
2017-10-27T09:19:22.756Z,14.29
2017-10-27T09:20:43.778Z,14.28
2017-10-27T09:21:43.757Z,14.17
2017-10-27T09:22:43.750Z,14.07
2017-10-27T09:23:22.735Z,13.99
2017-10-27T09:24:43.768Z,14.00
2017-10-27T09:25:43.754Z,13.96
2017-10-27T09:26:43.749Z,13.86
2017-10-27T09:27:22.726Z,13.87
2017-10-27T09:28:43.752Z,13.79
2017-10-27T09:29:43.721Z,13.87
2017-10-27T09:30:43.720Z,13.75
2017-10-27T09:31:22.729Z,13.77
2017-10-27T09:32:43.711Z,13.79
2017-10-27T09:33:43.707Z,13.72
2017-10-27T09:34:43.703Z,13.81
2017-10-27T09:35:22.688Z,13.92
2017-10-27T09:36:43.696Z,13.86
2017-10-27T09:37:43.692Z,13.86
2017-10-27T09:38:43.688Z,13.87
2017-10-27T09:39:22.673Z,13.75
2017-10-27T09:40:43.718Z,13.77
2017-10-27T09:41:43.681Z,13.74
2017-10-27T09:42:43.726Z,13.77
2017-10-27T09:43:22.655Z,13.72
2017-10-27T09:44:43.724Z,13.74
2017-10-27T09:45:43.719Z,13.85
2017-10-27T09:46:43.645Z,14.00
2017-10-27T09:47:22.638Z,13.90
2017-10-27T09:48:43.672Z,14.08
2017-10-27T09:49:43.638Z,14.04
2017-10-27T09:50:43.682Z,14.10
2017-10-27T09:51:22.635Z,14.08
2017-10-27T09:52:43.632Z,14.05
2017-10-27T09:53:43.639Z,14.00
2017-10-27T09:54:43.624Z,14.12
2017-10-27T09:55:22.605Z,14.12
2017-10-27T09:56:43.610Z,14.20
2017-10-27T09:57:43.649Z,14.28
2017-10-27T09:58:43.604Z,14.33
2017-10-27T09:59:22.596Z,14.40
2017-10-27T10:00:43.639Z,14.51
2017-10-27T10:01:43.615Z,14.50
2017-10-27T10:02:43.651Z,14.48
2017-10-27T10:03:22.573Z,14.55
2017-10-27T10:04:43.708Z,14.62
2017-10-27T10:05:43.613Z,14.72
2017-10-27T10:06:43.646Z,14.68
2017-10-27T10:07:22.556Z,14.79
2017-10-27T10:08:43.563Z,14.85
2017-10-27T10:09:43.590Z,14.92
2017-10-27T10:10:43.579Z,14.92
2017-10-27T10:11:22.543Z,14.92
2017-10-27T10:12:43.555Z,15.07
2017-10-27T10:13:43.566Z,14.99
2017-10-27T10:14:43.584Z,14.97
2017-10-27T10:15:22.533Z,15.04
2017-10-27T10:16:43.574Z,15.02
2017-10-27T10:17:43.578Z,15.02
2017-10-27T10:18:43.560Z,15.09
2017-10-27T10:19:22.508Z,15.14
2017-10-27T10:20:43.591Z,15.11
2017-10-27T10:21:43.507Z,15.09
2017-10-27T10:22:43.512Z,15.10
2017-10-27T10:23:22.491Z,14.97
2017-10-27T10:24:43.498Z,14.94
2017-10-27T10:25:43.505Z,15.00
2017-10-27T10:26:43.526Z,15.11
2017-10-27T10:27:22.476Z,15.07
2017-10-27T10:28:43.481Z,15.19
2017-10-27T10:29:43.513Z,15.25
2017-10-27T10:30:43.500Z,15.22
2017-10-27T10:31:22.472Z,15.22
2017-10-27T10:32:43.485Z,15.27
2017-10-27T10:33:43.483Z,15.17
2017-10-27T10:34:43.467Z,15.28
2017-10-27T10:35:22.450Z,15.36
2017-10-27T10:36:43.449Z,15.44
2017-10-27T10:37:43.443Z,15.35
2017-10-27T10:38:43.440Z,15.31
2017-10-27T10:39:22.454Z,15.25
2017-10-27T10:40:43.440Z,15.31
2017-10-27T10:41:43.431Z,15.31
2017-10-27T10:42:43.433Z,15.27
2017-10-27T10:43:22.417Z,15.43
2017-10-27T10:44:43.425Z,15.37
2017-10-27T10:45:43.413Z,15.49
2017-10-27T10:46:43.422Z,15.51
2017-10-27T10:47:22.402Z,15.58
2017-10-27T10:48:43.422Z,15.61
2017-10-27T10:49:43.418Z,15.65
2017-10-27T10:50:44.261Z,15.79
2017-10-27T10:51:22.391Z,15.51
2017-10-27T10:52:43.398Z,15.58
2017-10-27T10:53:43.383Z,15.58
2017-10-27T10:54:43.378Z,15.57
2017-10-27T10:55:22.376Z,15.42
2017-10-27T10:56:43.380Z,15.46
2017-10-27T10:57:43.376Z,15.33
2017-10-27T10:58:43.366Z,15.31
2017-10-27T10:59:22.356Z,15.43
2017-10-27T11:00:43.361Z,15.46
2017-10-27T11:01:43.362Z,15.47
2017-10-27T11:02:43.354Z,15.43
2017-10-27T11:03:22.341Z,15.43
2017-10-27T11:04:43.346Z,15.47
2017-10-27T11:05:43.347Z,15.59
2017-10-27T11:06:43.338Z,15.64
2017-10-27T11:07:22.331Z,15.79
2017-10-27T11:08:43.333Z,15.82
2017-10-27T11:09:43.331Z,15.83
2017-10-27T11:10:43.334Z,15.88
2017-10-27T11:11:22.315Z,15.80
2017-10-27T11:12:43.329Z,15.92
2017-10-27T11:13:43.317Z,16.02
2017-10-27T11:14:43.321Z,16.05
2017-10-27T11:15:22.308Z,16.26
2017-10-27T11:16:43.311Z,16.29
2017-10-27T11:17:43.310Z,16.36
2017-10-27T11:18:43.303Z,16.15
2017-10-27T11:19:22.301Z,15.97
2017-10-27T11:20:43.311Z,15.91
2017-10-27T11:21:43.292Z,15.86
2017-10-27T11:22:43.301Z,15.92
2017-10-27T11:23:22.286Z,15.76
2017-10-27T11:24:43.289Z,15.72
2017-10-27T11:25:43.289Z,15.47
2017-10-27T11:26:43.288Z,15.35
2017-10-27T11:27:22.278Z,15.22
2017-10-27T11:28:43.277Z,15.04
2017-10-27T11:29:43.272Z,14.89
2017-10-27T11:30:43.273Z,14.99
2017-10-27T11:31:22.263Z,15.09
2017-10-27T11:32:43.261Z,15.29
2017-10-27T11:33:43.263Z,15.43
2017-10-27T11:34:43.264Z,15.55
2017-10-27T11:35:22.256Z,15.62
2017-10-27T11:36:44.211Z,15.59
2017-10-27T11:37:43.251Z,15.40
2017-10-27T11:38:43.246Z,15.39
2017-10-27T11:39:22.235Z,15.29
2017-10-27T11:40:43.243Z,15.47
2017-10-27T11:41:43.237Z,15.52
2017-10-27T11:42:43.234Z,15.64
2017-10-27T11:43:22.230Z,15.75
2017-10-27T11:44:43.231Z,15.68
2017-10-27T11:45:43.221Z,15.90
2017-10-27T11:46:43.221Z,16.08
2017-10-27T11:47:22.209Z,16.29
2017-10-27T11:48:43.219Z,16.38
2017-10-27T11:49:43.212Z,16.35
2017-10-27T11:50:43.209Z,16.05
2017-10-27T11:51:22.199Z,15.79
2017-10-27T11:52:43.203Z,15.75
2017-10-27T11:53:43.204Z,15.86
2017-10-27T11:54:43.201Z,16.09
2017-10-27T11:55:22.187Z,15.83
2017-10-27T11:56:43.196Z,15.83
2017-10-27T11:57:43.200Z,15.82
2017-10-27T11:58:43.194Z,15.90
2017-10-27T11:59:22.180Z,16.15
2017-10-27T12:00:43.183Z,16.32
2017-10-27T12:01:43.185Z,16.33
2017-10-27T12:02:43.172Z,16.36
2017-10-27T12:03:22.179Z,16.29
2017-10-27T12:04:43.177Z,16.51
2017-10-27T12:05:43.170Z,16.36
2017-10-27T12:06:43.172Z,16.31
2017-10-27T12:07:22.155Z,16.13
2017-10-27T12:08:43.163Z,16.13
2017-10-27T12:09:43.157Z,16.13
2017-10-27T12:10:43.169Z,16.26
2017-10-27T12:11:22.143Z,16.33
2017-10-27T12:12:43.149Z,16.36
2017-10-27T12:13:43.144Z,16.39
2017-10-27T12:14:43.150Z,16.54
2017-10-27T12:15:22.135Z,16.57
2017-10-27T12:16:43.136Z,16.36
2017-10-27T12:17:43.137Z,16.28
2017-10-27T12:18:43.146Z,16.38
2017-10-27T12:19:22.125Z,16.56
2017-10-27T12:20:43.132Z,16.53
2017-10-27T12:21:43.126Z,16.64
2017-10-27T12:22:43.128Z,16.58
2017-10-27T12:23:22.115Z,16.51
2017-10-27T12:24:43.123Z,16.39
2017-10-27T12:25:43.119Z,16.29
2017-10-27T12:26:43.116Z,16.04
2017-10-27T12:27:22.106Z,15.82
2017-10-27T12:28:43.114Z,15.98
2017-10-27T12:29:43.102Z,15.90
2017-10-27T12:30:43.775Z,15.95
2017-10-27T12:31:22.093Z,16.04
2017-10-27T12:32:43.100Z,16.15
2017-10-27T12:33:43.098Z,16.33
2017-10-27T12:34:43.095Z,16.46
2017-10-27T12:35:22.087Z,16.58
2017-10-27T12:36:43.089Z,16.72
2017-10-27T12:37:43.087Z,16.68
2017-10-27T12:38:43.087Z,16.64
2017-10-27T12:39:22.075Z,16.32
2017-10-27T12:40:43.079Z,16.02
2017-10-27T12:41:43.075Z,16.20
2017-10-27T12:42:43.080Z,16.16
2017-10-27T12:43:22.067Z,16.26
2017-10-27T12:44:43.151Z,16.35
2017-10-27T12:45:43.074Z,16.35
2017-10-27T12:46:43.060Z,16.33
2017-10-27T12:47:22.052Z,16.35
2017-10-27T12:48:43.062Z,16.60
2017-10-27T12:49:43.058Z,16.72
2017-10-27T12:50:43.067Z,16.68
2017-10-27T12:51:22.045Z,16.66
2017-10-27T12:52:43.046Z,16.76